Time;durP1;ratioP1;P1;durP2;ratioP2;P2;SDS_P1;SDS_P2;PMS_P1;PMS_P2;Temp;Humidity;BMP_temperature;BMP_pressure;BME280_temperature;BME280_humidity;BME280_pressure;Samples;Min_cycle;Max_cycle;Signal;HPM_P1;HPM_P2
2021/07/28 00:00:34;;;;;;;32.00;23.02;;;16.60;99.90;;;;;;5026166;28;20051;-83
2021/07/28 00:03:00;;;;;;;42.05;25.98;;;16.50;99.90;;;;;;5036435;28;20034;-83
2021/07/28 00:05:26;;;;;;;39.25;25.65;;;16.50;99.90;;;;;;5033424;28;20044;-82
2021/07/28 00:07:52;;;;;;;39.53;25.13;;;16.50;99.90;;;;;;5027058;28;20065;-82
2021/07/28 00:10:19;;;;;;;38.22;23.88;;;16.50;99.90;;;;;;5026850;28;20029;-82
2021/07/28 00:12:44;;;;;;;36.20;24.27;;;16.50;99.90;;;;;;5013062;28;20068;-83
2021/07/28 00:15:11;;;;;;;38.47;24.73;;;16.50;99.90;;;;;;5031455;28;20064;-82
2021/07/28 00:18:02;;;;;;;42.05;25.10;;;16.40;99.90;;;;;;5022845;28;20176;-82
2021/07/28 00:23:12;;;;;;;37.50;24.55;;;16.40;99.90;;;;;;5031052;28;20057;-82
2021/07/28 00:23:14;;;;;;;40.05;25.10;;;16.40;99.90;;;;;;5015337;28;20094;-82
2021/07/28 00:25:41;;;;;;;36.70;24.65;;;16.40;99.90;;;;;;5017155;28;20036;-82
2021/07/28 00:28:07;;;;;;;37.13;23.70;;;16.30;99.90;;;;;;5031368;28;20478;-84
2021/07/28 00:30:34;;;;;;;40.45;24.70;;;16.30;99.90;;;;;;5026159;28;20088;-82
2021/07/28 00:32:59;;;;;;;40.58;24.27;;;16.30;99.90;;;;;;5029288;28;20076;-83
2021/07/28 00:35:25;;;;;;;41.00;23.70;;;16.20;99.90;;;;;;5029358;28;20117;-82
2021/07/28 00:37:55;;;;;;;38.65;24.05;;;16.20;99.90;;;;;;5029234;28;20121;-82
2021/07/28 00:40:21;;;;;;;36.83;23.63;;;16.20;99.90;;;;;;5029180;28;20049;-82
2021/07/28 00:42:46;;;;;;;39.92;24.90;;;16.20;99.90;;;;;;5046015;28;20252;-83
2021/07/28 00:45:13;;;;;;;37.38;24.40;;;16.10;99.90;;;;;;5043049;28;20475;-83
2021/07/28 00:47:39;;;;;;;41.53;24.25;;;16.10;99.90;;;;;;5037362;28;20061;-82
2021/07/28 00:50:06;;;;;;;44.83;25.48;;;16.10;99.90;;;;;;5029918;28;20080;-82
2021/07/28 00:52:37;;;;;;;40.95;24.02;;;16.00;99.90;;;;;;5005668;28;20474;-82
2021/07/28 00:55:05;;;;;;;39.58;24.70;;;16.00;99.90;;;;;;5047365;28;20033;-83
2021/07/28 00:57:31;;;;;;;43.88;25.88;;;16.00;99.90;;;;;;5052166;28;20488;-82
2021/07/28 00:59:58;;;;;;;41.85;25.48;;;16.00;99.90;;;;;;5031378;28;20322;-83
2021/07/28 01:02:24;;;;;;;43.58;25.17;;;15.90;99.90;;;;;;5015351;28;20053;-82
2021/07/28 01:04:49;;;;;;;38.05;23.95;;;15.90;99.90;;;;;;5034105;28;20041;-85
2021/07/28 01:07:15;;;;;;;44.65;23.60;;;15.90;99.90;;;;;;5025099;28;20033;-83
2021/07/28 01:09:41;;;;;;;37.10;23.30;;;15.90;99.90;;;;;;5027960;28;20045;-83
2021/07/28 01:12:08;;;;;;;40.38;24.42;;;15.80;99.90;;;;;;5024961;28;20482;-83
2021/07/28 01:14:33;;;;;;;35.53;24.52;;;15.80;99.90;;;;;;5016896;28;20647;-82
2021/07/28 01:16:59;;;;;;;38.38;23.38;;;15.80;99.90;;;;;;5035755;28;20032;-83
2021/07/28 01:19:34;;;;;;;37.45;23.50;;;15.80;99.90;;;;;;5031347;28;20103;-82
2021/07/28 01:22:02;;;;;;;37.78;23.60;;;15.80;99.90;;;;;;5042837;28;20175;-82
2021/07/28 01:24:28;;;;;;;38.38;22.88;;;15.80;99.90;;;;;;4999830;28;20037;-83
2021/07/28 01:26:56;;;;;;;40.00;25.15;;;15.70;99.90;;;;;;5034261;28;20041;-82
2021/07/28 01:29:23;;;;;;;36.58;23.48;;;15.70;99.90;;;;;;5033038;28;20479;-82
2021/07/28 01:31:53;;;;;;;35.78;23.13;;;15.80;99.90;;;;;;5028777;28;20500;-83
2021/07/28 01:34:20;;;;;;;34.30;22.63;;;15.70;99.90;;;;;;5032021;28;20048;-83
2021/07/28 01:36:48;;;;;;;40.40;23.63;;;15.70;99.90;;;;;;5032046;28;20077;-82
2021/07/28 01:39:14;;;;;;;38.78;24.70;;;15.70;99.90;;;;;;5045785;28;20121;-82
2021/07/28 01:41:40;;;;;;;42.42;25.58;;;15.70;99.90;;;;;;5034533;28;20101;-83
2021/07/28 01:46:44;;;;;;;41.72;25.45;;;15.70;99.90;;;;;;5261856;23;20072;-82
2021/07/28 01:49:10;;;;;;;40.28;23.83;;;15.70;99.90;;;;;;4998322;28;20079;-83
2021/07/28 01:52:02;;;;;;;45.30;25.83;;;15.70;99.90;;;;;;5016427;28;20029;-83
2021/07/28 01:54:37;;;;;;;42.17;24.25;;;15.60;99.90;;;;;;5016102;28;20042;-83
2021/07/28 01:57:04;;;;;;;49.75;27.20;;;15.60;99.90;;;;;;4994889;28;20067;-82
2021/07/28 01:59:35;;;;;;;46.47;26.40;;;15.60;99.90;;;;;;5013571;28;20045;-82
2021/07/28 02:02:01;;;;;;;45.05;25.52;;;15.60;99.90;;;;;;5020896;28;20428;-83
2021/07/28 02:04:27;;;;;;;42.40;24.52;;;15.60;99.90;;;;;;4998364;28;20034;-82
2021/07/28 02:06:53;;;;;;;44.25;25.38;;;15.60;99.90;;;;;;4994999;28;20041;-83
2021/07/28 02:09:18;;;;;;;42.97;24.70;;;15.60;99.90;;;;;;5000328;28;20125;-82
2021/07/28 02:11:45;;;;;;;44.35;25.58;;;15.60;99.90;;;;;;4984413;28;20545;-82
2021/07/28 02:14:11;;;;;;;38.47;24.08;;;15.60;99.90;;;;;;4983481;28;20060;-83
2021/07/28 02:16:37;;;;;;;38.47;22.88;;;15.60;99.90;;;;;;5002750;28;20033;-83
2021/07/28 02:19:02;;;;;;;40.35;24.10;;;15.60;99.90;;;;;;4980164;28;20042;-83
2021/07/28 02:21:28;;;;;;;39.70;23.92;;;15.60;99.90;;;;;;4995432;28;20034;-82
2021/07/28 02:23:55;;;;;;;42.08;24.23;;;15.60;99.90;;;;;;4961231;28;20045;-83
2021/07/28 02:26:21;;;;;;;36.30;22.13;;;15.60;99.90;;;;;;5017645;28;20060;-83
2021/07/28 02:28:46;;;;;;;37.35;23.00;;;15.50;99.90;;;;;;4981760;28;20030;-82
2021/07/28 02:31:12;;;;;;;40.95;22.73;;;15.50;99.90;;;;;;5001772;28;20037;-86
2021/07/28 02:33:38;;;;;;;37.03;22.25;;;15.50;99.90;;;;;;5010433;28;20056;-82
2021/07/28 02:36:04;;;;;;;41.15;23.02;;;15.50;99.90;;;;;;4998918;28;20053;-83
2021/07/28 02:38:30;;;;;;;38.63;23.38;;;15.50;99.90;;;;;;4979528;28;20061;-82
2021/07/28 02:40:58;;;;;;;40.13;22.92;;;15.50;99.90;;;;;;4998368;28;20033;-82
2021/07/28 02:43:39;;;;;;;36.10;22.85;;;15.50;99.90;;;;;;4997134;28;20054;-82
2021/07/28 02:46:05;;;;;;;38.65;22.70;;;15.40;99.90;;;;;;5010403;28;20140;-83
2021/07/28 02:48:33;;;;;;;36.65;22.88;;;15.40;99.90;;;;;;4983377;28;20103;-83
2021/07/28 02:50:59;;;;;;;44.97;22.85;;;15.40;99.90;;;;;;5005519;28;20053;-83
2021/07/28 02:53:27;;;;;;;35.97;21.55;;;15.40;99.90;;;;;;4980940;28;20077;-82
2021/07/28 02:55:53;;;;;;;38.85;22.48;;;15.40;99.90;;;;;;5003201;23;20519;-81
2021/07/28 02:58:19;;;;;;;40.90;22.90;;;15.40;99.90;;;;;;5016788;28;20036;-80
2021/07/28 03:00:47;;;;;;;42.30;23.48;;;15.30;99.90;;;;;;5001528;28;20040;-82
2021/07/28 03:03:12;;;;;;;37.70;22.20;;;15.30;99.90;;;;;;5032592;28;20395;-80
2021/07/28 03:05:38;;;;;;;38.90;23.13;;;15.30;99.90;;;;;;5036102;28;20026;-80
2021/07/28 03:08:04;;;;;;;39.35;22.50;;;15.30;99.90;;;;;;5000831;28;20026;-81
2021/07/28 03:10:30;;;;;;;41.03;23.35;;;15.30;99.90;;;;;;5008239;28;20034;-81
2021/07/28 03:12:56;;;;;;;44.25;23.05;;;15.30;99.90;;;;;;4995141;28;20164;-79
2021/07/28 03:15:22;;;;;;;42.83;24.15;;;15.30;99.90;;;;;;4991688;28;20056;-79
2021/07/28 03:17:48;;;;;;;44.63;23.42;;;15.20;99.90;;;;;;4993562;28;20030;-78
2021/07/28 03:20:15;;;;;;;40.08;22.77;;;15.20;99.90;;;;;;5016463;28;20038;-79
2021/07/28 03:22:41;;;;;;;41.80;23.48;;;15.20;99.90;;;;;;5015761;28;20036;-78
2021/07/28 03:25:07;;;;;;;44.67;24.15;;;15.20;99.90;;;;;;4997191;28;20096;-78
2021/07/28 03:27:33;;;;;;;40.80;23.67;;;15.20;99.90;;;;;;5005726;28;20042;-78
2021/07/28 03:29:59;;;;;;;46.78;25.08;;;15.20;99.90;;;;;;4995358;28;20038;-80
2021/07/28 03:32:25;;;;;;;41.97;22.95;;;15.20;99.90;;;;;;5017314;28;20382;-79
2021/07/28 03:34:51;;;;;;;42.20;23.25;;;15.20;99.90;;;;;;5014278;28;20164;-80
2021/07/28 03:37:16;;;;;;;42.28;24.42;;;15.20;99.90;;;;;;5013415;28;20045;-79
2021/07/28 03:39:42;;;;;;;42.50;23.88;;;15.10;99.90;;;;;;5012631;28;20121;-81
2021/07/28 03:42:09;;;;;;;38.88;22.77;;;15.10;99.90;;;;;;4993369;28;20134;-80
2021/07/28 03:44:34;;;;;;;42.05;23.65;;;15.10;99.90;;;;;;5031952;28;20128;-79
2021/07/28 03:47:00;;;;;;;45.17;23.73;;;15.10;99.90;;;;;;5021478;28;20506;-82
2021/07/28 03:49:26;;;;;;;41.90;23.65;;;15.10;99.90;;;;;;5022171;28;20045;-78
2021/07/28 03:51:52;;;;;;;39.85;23.63;;;15.10;99.90;;;;;;5016598;28;20121;-79
2021/07/28 03:54:18;;;;;;;37.05;22.35;;;15.10;99.90;;;;;;5042189;28;20030;-79
2021/07/28 03:56:43;;;;;;;37.92;23.17;;;15.10;99.90;;;;;;5017914;28;20476;-79
2021/07/28 03:59:09;;;;;;;42.40;23.73;;;15.10;99.90;;;;;;4980314;28;20033;-79
2021/07/28 04:01:35;;;;;;;42.25;23.35;;;15.10;99.90;;;;;;5017558;28;20029;-79
2021/07/28 04:04:01;;;;;;;43.85;23.52;;;15.10;99.90;;;;;;4995914;28;20059;-80
2021/07/28 04:06:27;;;;;;;42.60;23.60;;;15.10;99.90;;;;;;5016734;28;20061;-81
2021/07/28 04:08:52;;;;;;;38.20;23.13;;;15.10;99.90;;;;;;5005936;28;20092;-80
2021/07/28 04:11:18;;;;;;;39.42;22.92;;;15.00;99.90;;;;;;5019778;28;20032;-79
2021/07/28 04:13:44;;;;;;;41.85;23.13;;;15.10;99.90;;;;;;4999231;28;20068;-78
2021/07/28 04:16:10;;;;;;;42.28;23.85;;;15.10;99.90;;;;;;5022456;28;20034;-79
2021/07/28 04:18:36;;;;;;;40.85;22.90;;;15.10;99.90;;;;;;4996352;28;20412;-79
2021/07/28 04:21:02;;;;;;;40.65;23.33;;;15.10;99.90;;;;;;5002311;28;20392;-79
2021/07/28 04:23:28;;;;;;;38.50;22.35;;;15.10;99.90;;;;;;5028659;28;20030;-79
2021/07/28 04:25:53;;;;;;;44.20;23.85;;;15.10;99.90;;;;;;5032403;28;20038;-78
2021/07/28 04:28:19;;;;;;;40.83;23.27;;;15.10;99.90;;;;;;5018524;28;20038;-79
2021/07/28 04:30:45;;;;;;;45.42;24.02;;;15.10;99.90;;;;;;5009519;28;20488;-79
2021/07/28 04:33:11;;;;;;;35.90;22.88;;;15.10;99.90;;;;;;4976364;28;20026;-79
2021/07/28 04:35:36;;;;;;;41.75;23.08;;;15.10;99.90;;;;;;5022343;28;20037;-80
2021/07/28 04:38:02;;;;;;;44.70;24.23;;;15.20;99.90;;;;;;5016260;28;20030;-79
2021/07/28 04:40:28;;;;;;;45.30;24.40;;;15.20;99.90;;;;;;5009914;28;20044;-79
2021/07/28 04:42:55;;;;;;;43.00;24.98;;;15.20;99.90;;;;;;5009658;28;20034;-79
2021/07/28 04:45:21;;;;;;;46.38;24.98;;;15.20;99.90;;;;;;4997692;28;20038;-79
2021/07/28 04:47:48;;;;;;;43.17;25.52;;;15.30;99.90;;;;;;5033042;28;20065;-79
2021/07/28 04:50:13;;;;;;;43.28;24.58;;;15.30;99.90;;;;;;5017573;28;20069;-80
2021/07/28 04:52:39;;;;;;;44.20;25.08;;;15.30;99.90;;;;;;5015290;28;20056;-79
2021/07/28 04:55:05;;;;;;;43.83;25.27;;;15.30;99.90;;;;;;5004375;28;20075;-79
2021/07/28 04:57:31;;;;;;;48.72;26.23;;;15.40;99.90;;;;;;4999344;28;20034;-79
2021/07/28 04:59:57;;;;;;;56.05;28.23;;;15.40;99.90;;;;;;5026103;28;20073;-79
2021/07/28 05:02:25;;;;;;;50.42;27.42;;;15.40;99.90;;;;;;5013609;28;20407;-79
2021/07/28 05:04:51;;;;;;;46.88;29.08;;;15.50;99.90;;;;;;4998486;28;20443;-80
2021/07/28 05:07:18;;;;;;;50.25;29.75;;;15.50;99.90;;;;;;4999393;28;20405;-81
2021/07/28 05:09:44;;;;;;;58.13;31.00;;;15.50;99.90;;;;;;5010587;28;20069;-80
2021/07/28 05:12:09;;;;;;;58.42;32.67;;;15.60;99.90;;;;;;5008866;28;20113;-80
2021/07/28 05:14:35;;;;;;;62.60;34.60;;;15.60;99.90;;;;;;5030036;28;20037;-81
2021/07/28 05:17:01;;;;;;;67.45;34.00;;;15.70;99.90;;;;;;5003810;28;20029;-79
2021/07/28 05:19:27;;;;;;;56.92;32.70;;;15.70;99.90;;;;;;5011105;28;20377;-80
2021/07/28 05:21:53;;;;;;;64.95;35.22;;;15.70;99.90;;;;;;5001739;28;20065;-80
2021/07/28 05:24:18;;;;;;;58.05;34.55;;;15.80;99.90;;;;;;5011718;28;20029;-82
2021/07/28 05:26:44;;;;;;;65.63;36.08;;;15.80;99.90;;;;;;4981507;28;20116;-82
2021/07/28 05:29:10;;;;;;;66.05;35.42;;;15.90;99.90;;;;;;4994073;28;20436;-81
2021/07/28 05:31:37;;;;;;;65.07;36.03;;;16.00;99.90;;;;;;5033846;28;20034;-81
2021/07/28 05:34:05;;;;;;;63.15;37.33;;;16.00;99.90;;;;;;4994028;28;20030;-82
2021/07/28 05:36:30;;;;;;;63.90;36.47;;;16.00;99.90;;;;;;4981355;28;20038;-82
2021/07/28 05:38:56;;;;;;;72.53;37.90;;;16.10;99.90;;;;;;5037407;28;20124;-82
2021/07/28 05:41:22;;;;;;;66.15;37.80;;;16.10;99.90;;;;;;5032892;28;20049;-81
2021/07/28 05:43:48;;;;;;;68.32;39.50;;;16.10;99.90;;;;;;5010288;28;20038;-83
2021/07/28 05:46:14;;;;;;;64.75;37.75;;;16.20;99.90;;;;;;4995803;28;20034;-81
2021/07/28 05:48:40;;;;;;;70.03;38.85;;;16.20;99.90;;;;;;4976371;28;20283;-81
2021/07/28 05:51:06;;;;;;;66.35;37.88;;;16.20;99.90;;;;;;4976007;28;20042;-81
2021/07/28 05:53:34;;;;;;;71.20;38.50;;;16.30;99.90;;;;;;5021056;28;20030;-81
2021/07/28 05:56:00;;;;;;;62.95;38.38;;;16.30;99.90;;;;;;5008101;28;20034;-81
2021/07/28 05:58:26;;;;;;;63.88;38.65;;;16.30;99.90;;;;;;4991604;28;20038;-81
2021/07/28 06:00:52;;;;;;;62.20;37.47;;;16.30;99.90;;;;;;5008128;28;20050;-82
2021/07/28 06:03:17;;;;;;;59.13;35.55;;;16.40;99.90;;;;;;5011175;28;20040;-82
2021/07/28 06:05:43;;;;;;;62.78;35.55;;;16.40;99.90;;;;;;4989936;28;20613;-81
2021/07/28 06:08:09;;;;;;;61.83;36.63;;;16.40;99.90;;;;;;4998632;28;20343;-83
2021/07/28 06:10:35;;;;;;;58.78;36.03;;;16.40;99.90;;;;;;5007900;28;20034;-83
2021/07/28 06:13:01;;;;;;;50.47;31.75;;;16.40;99.90;;;;;;4997906;28;20548;-81
2021/07/28 06:15:27;;;;;;;55.25;32.47;;;16.50;99.90;;;;;;5014160;28;20034;-80
2021/07/28 06:17:53;;;;;;;47.78;30.98;;;16.40;99.90;;;;;;5009696;28;20499;-83
2021/07/28 06:20:19;;;;;;;44.67;30.52;;;16.50;99.90;;;;;;5015975;28;20026;-82
2021/07/28 06:22:45;;;;;;;46.38;31.35;;;16.50;99.90;;;;;;4997509;28;20030;-82
2021/07/28 06:25:11;;;;;;;46.25;30.15;;;16.60;99.90;;;;;;4980513;28;20037;-82
2021/07/28 06:27:37;;;;;;;46.58;30.40;;;16.60;99.90;;;;;;5013033;28;20511;-81
2021/07/28 06:30:04;;;;;;;48.42;30.85;;;16.60;99.90;;;;;;4967075;28;20128;-82
2021/07/28 06:32:29;;;;;;;47.33;31.45;;;16.70;99.90;;;;;;4997019;28;20113;-82
2021/07/28 06:34:55;;;;;;;50.33;32.53;;;16.70;99.90;;;;;;4996556;28;20133;-81
2021/07/28 06:37:21;;;;;;;46.10;30.75;;;16.80;99.90;;;;;;5030473;28;20038;-83
2021/07/28 06:39:47;;;;;;;46.33;31.42;;;16.80;99.90;;;;;;4994168;28;20034;-81
2021/07/28 06:42:14;;;;;;;45.80;30.67;;;16.80;99.90;;;;;;5004124;28;20034;-82
2021/07/28 06:44:41;;;;;;;41.47;28.58;;;16.80;99.90;;;;;;5002164;28;20038;-83
2021/07/28 06:47:08;;;;;;;47.53;28.88;;;16.80;99.90;;;;;;4983594;28;20026;-82
2021/07/28 06:49:34;;;;;;;43.28;29.40;;;16.90;99.90;;;;;;5029551;28;20100;-82
2021/07/28 06:51:59;;;;;;;41.75;27.30;;;16.90;99.90;;;;;;5017070;28;20026;-82
2021/07/28 06:54:25;;;;;;;36.20;26.05;;;17.00;99.90;;;;;;4997894;28;20046;-83
2021/07/28 06:56:51;;;;;;;35.97;25.55;;;17.00;99.90;;;;;;4995489;28;20030;-83
2021/07/28 06:59:17;;;;;;;37.35;26.15;;;17.10;99.90;;;;;;4975801;28;20042;-83
2021/07/28 07:01:44;;;;;;;37.03;26.15;;;17.10;99.90;;;;;;4979510;28;20419;-84
2021/07/28 07:04:10;;;;;;;34.17;24.15;;;17.10;99.90;;;;;;5008043;28;20038;-82
2021/07/28 07:06:36;;;;;;;31.77;23.08;;;17.10;99.90;;;;;;4979060;28;20511;-82
2021/07/28 07:09:02;;;;;;;32.08;24.08;;;17.20;99.90;;;;;;4982827;28;20064;-82
2021/07/28 07:11:28;;;;;;;26.33;20.30;;;17.20;99.90;;;;;;5010433;28;20200;-83
2021/07/28 07:13:54;;;;;;;28.90;21.17;;;17.20;99.90;;;;;;5012982;28;20365;-82
2021/07/28 07:16:20;;;;;;;26.15;18.73;;;17.30;99.90;;;;;;5001856;28;20294;-81
2021/07/28 07:18:46;;;;;;;25.20;19.05;;;17.30;99.90;;;;;;4979857;28;20037;-82
2021/07/28 07:21:11;;;;;;;26.77;18.40;;;17.30;99.90;;;;;;5009293;28;20121;-82
2021/07/28 07:23:37;;;;;;;24.75;18.20;;;17.40;99.90;;;;;;5029157;28;20116;-82
2021/07/28 07:26:03;;;;;;;24.65;18.23;;;17.40;99.90;;;;;;4985434;28;20030;-83
2021/07/28 07:28:29;;;;;;;24.27;19.33;;;17.40;99.90;;;;;;5011759;28;20038;-83
2021/07/28 07:30:55;;;;;;;25.95;18.30;;;17.50;99.90;;;;;;5010333;28;20377;-83
2021/07/28 07:36:07;;;;;;;27.08;19.33;;;17.50;99.90;;;;;;4996306;28;20041;-83
2021/07/28 07:38:34;;;;;;;28.38;18.40;;;17.50;99.90;;;;;;5019885;28;21469;-82
2021/07/28 07:41:00;;;;;;;28.17;20.33;;;17.50;99.90;;;;;;5011103;28;20462;-83
2021/07/28 07:43:25;;;;;;;24.25;19.75;;;17.50;99.90;;;;;;5000995;28;20186;-82
2021/07/28 07:45:55;;;;;;;27.40;20.33;;;17.50;99.90;;;;;;5011839;28;20049;-83
2021/07/28 07:48:22;;;;;;;29.63;20.90;;;17.40;99.90;;;;;;5000907;28;20117;-81
2021/07/28 07:50:48;;;;;;;31.08;22.00;;;17.40;99.90;;;;;;4981215;28;20042;-84
2021/07/28 07:53:14;;;;;;;29.25;22.50;;;17.40;99.90;;;;;;5012157;28;20038;-81
2021/07/28 07:55:40;;;;;;;29.65;22.02;;;17.50;99.90;;;;;;4994036;28;20029;-83
2021/07/28 07:58:05;;;;;;;30.25;22.02;;;17.40;99.90;;;;;;5006950;28;20041;-81
2021/07/28 08:00:31;;;;;;;31.38;23.23;;;17.40;99.90;;;;;;5002287;28;20042;-82
2021/07/28 08:02:57;;;;;;;32.80;22.35;;;17.50;99.90;;;;;;5010426;28;20037;-84
2021/07/28 08:05:23;;;;;;;30.50;22.45;;;17.60;99.90;;;;;;5009088;28;20045;-82
2021/07/28 08:07:48;;;;;;;29.08;21.77;;;17.60;99.90;;;;;;4996218;28;20037;-83
2021/07/28 08:10:14;;;;;;;30.23;21.38;;;17.70;99.90;;;;;;4976560;28;20042;-81
2021/07/28 08:12:40;;;;;;;27.23;22.70;;;17.80;99.90;;;;;;5025877;28;20041;-82
2021/07/28 08:15:06;;;;;;;26.80;22.27;;;17.90;99.90;;;;;;4981712;28;20112;-82
2021/07/28 08:17:32;;;;;;;27.13;20.50;;;17.90;99.90;;;;;;5007973;28;20173;-82
2021/07/28 08:20:00;;;;;;;25.20;19.77;;;18.00;99.90;;;;;;5009802;28;20041;-82
2021/07/28 08:22:29;;;;;;;27.25;20.63;;;18.00;99.90;;;;;;4996475;28;20046;-83
2021/07/28 08:24:55;;;;;;;29.60;20.70;;;18.10;99.90;;;;;;5009427;28;20089;-82
2021/07/28 08:27:22;;;;;;;28.48;20.00;;;18.10;99.90;;;;;;5009945;28;20113;-82
2021/07/28 08:29:48;;;;;;;27.10;20.45;;;18.20;99.90;;;;;;5013684;28;20037;-82
2021/07/28 08:32:14;;;;;;;25.70;19.80;;;18.20;99.90;;;;;;4994411;28;20036;-82
2021/07/28 08:34:40;;;;;;;28.63;21.15;;;18.20;99.90;;;;;;5005448;28;20053;-83
2021/07/28 08:37:06;;;;;;;27.92;21.13;;;18.10;99.90;;;;;;4992339;28;20069;-82
2021/07/28 08:39:32;;;;;;;29.80;21.75;;;18.10;99.90;;;;;;5006962;28;20105;-82
2021/07/28 08:42:04;;;;;;;31.50;21.98;;;18.10;99.90;;;;;;4992342;28;20465;-82
2021/07/28 08:44:32;;;;;;;;;;;18.00;99.90;;;;;;5001010;28;20468;-83
2021/07/28 08:46:59;;;;;;;29.98;21.85;;;18.00;99.90;;;;;;4992324;28;19921;-81
2021/07/28 08:49:25;;;;;;;29.15;22.02;;;18.00;99.90;;;;;;5015962;28;20124;-83
2021/07/28 08:51:51;;;;;;;32.40;22.35;;;18.10;99.90;;;;;;4993615;28;20050;-82
2021/07/28 08:54:16;;;;;;;30.63;22.75;;;18.10;99.90;;;;;;5009329;28;20038;-80
2021/07/28 08:56:42;;;;;;;31.75;22.98;;;18.20;99.90;;;;;;4994668;28;20115;-82
2021/07/28 08:59:31;;;;;;;29.95;21.85;;;18.40;99.90;;;;;;5006584;28;20435;-81
2021/07/28 09:01:59;;;;;;;31.42;21.20;;;18.50;99.90;;;;;;5023251;28;20109;-83
2021/07/28 09:04:26;;;;;;;27.55;19.75;;;18.60;99.90;;;;;;5023401;28;20041;-83
2021/07/28 09:06:53;;;;;;;23.90;19.52;;;18.70;99.90;;;;;;5028092;28;20451;-84
2021/07/28 09:09:20;;;;;;;24.48;19.65;;;18.80;99.90;;;;;;5010463;28;20068;-82
2021/07/28 09:11:57;;;;;;;22.45;18.65;;;18.90;99.90;;;;;;4990414;28;20040;-82
2021/07/28 09:14:28;;;;;;;29.02;19.45;;;19.00;99.50;;;;;;5000956;28;20038;-82
2021/07/28 09:17:16;;;;;;;23.90;19.00;;;19.00;99.60;;;;;;4999484;28;20117;-83
2021/07/28 09:19:47;;;;;;;21.85;15.43;;;19.00;99.40;;;;;;5014341;28;20040;-81
2021/07/28 09:22:15;;;;;;;21.40;15.73;;;19.10;99.00;;;;;;5012260;28;20488;-82
2021/07/28 09:24:43;;;;;;;19.90;15.20;;;19.20;98.50;;;;;;5029778;28;20061;-83
2021/07/28 09:27:28;;;;;;;16.80;13.73;;;19.30;97.80;;;;;;4993239;28;20049;-82
2021/07/28 09:29:54;;;;;;;19.58;14.20;;;19.30;97.70;;;;;;5004797;28;20038;-81
2021/07/28 09:32:20;;;;;;;14.85;12.30;;;19.40;97.50;;;;;;4999945;28;20108;-83
2021/07/28 09:34:46;;;;;;;16.23;12.73;;;19.50;96.60;;;;;;5012524;28;20041;-84
2021/07/28 09:37:15;;;;;;;16.60;12.55;;;19.50;96.20;;;;;;4984766;28;20046;-83
2021/07/28 09:39:48;;;;;;;16.27;12.50;;;19.60;96.10;;;;;;5000934;28;20123;-83
2021/07/28 09:42:16;;;;;;;17.35;12.93;;;19.60;96.30;;;;;;5007969;28;20121;-83
2021/07/28 09:44:44;;;;;;;17.45;14.07;;;19.60;96.30;;;;;;5021350;28;20052;-85
2021/07/28 09:47:18;;;;;;;20.52;13.43;;;19.70;95.80;;;;;;5019157;28;20037;-81
2021/07/28 09:49:46;;;;;;;20.88;13.98;;;19.60;95.70;;;;;;5013647;28;20109;-83
2021/07/28 09:52:22;;;;;;;19.52;13.90;;;19.60;95.60;;;;;;5019764;28;20038;-83
2021/07/28 09:54:51;;;;;;;16.88;13.55;;;19.60;95.90;;;;;;5011680;28;20091;-83
2021/07/28 09:57:22;;;;;;;17.75;13.23;;;19.70;96.00;;;;;;5018685;28;20041;-83
2021/07/28 09:59:54;;;;;;;14.43;12.68;;;19.70;95.70;;;;;;5018610;28;20025;-84
2021/07/28 10:02:22;;;;;;;14.10;12.10;;;19.80;95.10;;;;;;5001325;28;20459;-81
2021/07/28 10:04:49;;;;;;;16.40;12.48;;;19.80;94.40;;;;;;5009276;28;20037;-83
2021/07/28 10:07:17;;;;;;;18.05;12.60;;;19.80;94.50;;;;;;5001907;28;20034;-83
2021/07/28 10:10:07;;;;;;;16.48;13.13;;;19.80;94.40;;;;;;5012936;28;20299;-83
2021/07/28 10:12:36;;;;;;;15.65;13.02;;;19.90;94.10;;;;;;5021499;28;20183;-84
2021/07/28 10:15:08;;;;;;;14.60;11.68;;;19.90;93.70;;;;;;5016065;28;20034;-82
2021/07/28 10:17:41;;;;;;;13.73;10.85;;;19.90;93.20;;;;;;5018882;28;20410;-82
2021/07/28 10:20:14;;;;;;;13.82;11.52;;;19.90;93.30;;;;;;5039104;28;20080;-83
2021/07/28 10:22:42;;;;;;;15.48;10.73;;;19.90;93.10;;;;;;5012151;28;20129;-81
2021/07/28 10:25:13;;;;;;;14.15;11.38;;;19.90;93.30;;;;;;5004361;28;20554;-84
2021/07/28 10:27:42;;;;;;;13.18;10.57;;;19.90;93.80;;;;;;5014476;28;20112;-82
2021/07/28 10:30:13;;;;;;;14.30;9.52;;;20.00;93.50;;;;;;4982531;28;20068;-83
2021/07/28 10:32:40;;;;;;;16.70;10.60;;;20.10;93.30;;;;;;5021915;28;20574;-83
2021/07/28 10:35:30;;;;;;;13.80;10.80;;;20.20;92.30;;;;;;5017813;28;20033;-82
2021/07/28 10:37:58;;;;;;;15.88;11.20;;;20.30;92.50;;;;;;5027121;28;20061;-82
2021/07/28 10:40:24;;;;;;;11.77;10.30;;;20.30;92.40;;;;;;5020072;28;20038;-84
2021/07/28 10:42:49;;;;;;;11.75;9.13;;;20.40;92.50;;;;;;5018031;28;20056;-80
2021/07/28 10:45:17;;;;;;;13.18;9.63;;;20.50;91.10;;;;;;5014671;28;20040;-83
2021/07/28 10:47:45;;;;;;;12.85;10.02;;;20.70;90.70;;;;;;5018532;28;20342;-82
2021/07/28 10:50:26;;;;;;;11.80;10.55;;;20.60;90.50;;;;;;5017897;28;20369;-83
2021/07/28 10:52:52;;;;;;;13.30;9.82;;;20.60;91.30;;;;;;5008469;28;20088;-80
2021/07/28 10:55:37;;;;;;;11.10;8.57;;;20.60;91.20;;;;;;5014874;28;20033;-83
2021/07/28 10:58:09;;;;;;;9.32;8.00;;;20.60;91.20;;;;;;5017591;28;20030;-81
2021/07/28 11:00:38;;;;;;;12.27;8.07;;;20.50;90.70;;;;;;5016895;28;20034;-83
2021/07/28 11:03:13;;;;;;;9.70;8.00;;;20.40;91.00;;;;;;5000598;28;20556;-81
2021/07/28 11:05:49;;;;;;;10.40;8.07;;;20.40;91.40;;;;;;5020956;28;20057;-82
2021/07/28 11:08:22;;;;;;;10.13;7.68;;;20.40;91.60;;;;;;5008571;28;20038;-82
2021/07/28 11:10:48;;;;;;;11.65;6.82;;;20.30;91.30;;;;;;5010023;28;20050;-83
2021/07/28 11:13:19;;;;;;;8.30;7.13;;;20.20;91.30;;;;;;5039945;28;20034;-82
2021/07/28 11:16:00;;;;;;;11.18;7.25;;;20.20;91.60;;;;;;5030202;28;20474;-84
2021/07/28 11:18:34;;;;;;;10.35;8.00;;;20.10;91.90;;;;;;5001223;28;20111;-83
2021/07/28 11:21:14;;;;;;;9.68;6.85;;;20.00;92.10;;;;;;5015306;28;20392;-82
2021/07/28 11:23:55;;;;;;;10.52;7.53;;;19.90;92.40;;;;;;5030355;28;20036;-83
2021/07/28 11:26:26;;;;;;;8.35;6.95;;;19.90;92.70;;;;;;4994677;28;20054;-82
2021/07/28 11:28:57;;;;;;;11.93;7.40;;;19.90;93.00;;;;;;5006282;28;20046;-82
2021/07/28 11:31:31;;;;;;;11.05;7.50;;;19.90;92.80;;;;;;5010945;28;20037;-83
2021/07/28 11:34:11;;;;;;;7.43;6.63;;;19.90;93.00;;;;;;5012233;28;20034;-83
2021/07/28 11:36:46;;;;;;;14.30;9.20;;;19.80;92.90;;;;;;5014221;28;20033;-83
2021/07/28 11:39:15;;;;;;;11.07;9.20;;;19.70;93.80;;;;;;5018648;28;20041;-83
2021/07/28 11:41:42;;;;;;;12.40;10.02;;;19.50;94.60;;;;;;5026736;28;20026;-85
2021/07/28 11:44:08;;;;;;;11.07;9.43;;;19.40;95.20;;;;;;5021773;28;20040;-83
2021/07/28 11:46:34;;;;;;;11.65;9.50;;;19.30;95.80;;;;;;5022291;28;20472;-82
2021/07/28 11:49:04;;;;;;;12.15;9.27;;;19.30;96.00;;;;;;5018260;28;20042;-83
2021/07/28 11:51:32;;;;;;;12.32;9.68;;;19.30;96.10;;;;;;5017443;28;20045;-84
2021/07/28 11:54:14;;;;;;;10.20;8.07;;;19.30;96.40;;;;;;5012865;28;20130;-82
2021/07/28 11:56:50;;;;;;;10.00;8.80;;;19.30;96.10;;;;;;5026344;28;20116;-83
2021/07/28 11:59:20;;;;;;;10.23;8.38;;;19.30;96.10;;;;;;5014471;28;20488;-82
2021/07/28 12:01:51;;;;;;;9.18;8.30;;;19.30;96.20;;;;;;5015786;28;20472;-83
2021/07/28 12:04:25;;;;;;;12.18;7.82;;;19.40;96.10;;;;;;5017475;28;20038;-83
2021/07/28 12:06:53;;;;;;;15.15;8.90;;;19.50;95.60;;;;;;5014115;28;20046;-82
2021/07/28 12:09:27;;;;;;;9.82;7.35;;;19.50;95.50;;;;;;5000780;28;20409;-82
2021/07/28 12:11:59;;;;;;;10.50;6.85;;;19.60;95.10;;;;;;5026448;28;20094;-83
2021/07/28 12:14:38;;;;;;;8.32;6.40;;;19.60;94.90;;;;;;5016895;28;20030;-81
2021/07/28 12:17:04;;;;;;;9.70;6.65;;;19.70;94.80;;;;;;5001202;28;20037;-85
2021/07/28 12:19:39;;;;;;;9.25;6.97;;;19.80;94.30;;;;;;5037055;28;20034;-83
2021/07/28 12:22:06;;;;;;;10.43;6.43;;;19.80;94.10;;;;;;5019275;28;20042;-84
2021/07/28 12:24:33;;;;;;;9.27;6.75;;;19.90;94.30;;;;;;5026392;28;20103;-81
2021/07/28 12:27:24;;;;;;;9.35;6.97;;;20.00;94.30;;;;;;5017182;28;20467;-82
2021/07/28 12:30:00;;;;;;;8.38;5.57;;;20.10;94.00;;;;;;4990607;28;20502;-83
2021/07/28 12:32:43;;;;;;;13.93;5.47;;;20.20;93.50;;;;;;5017386;28;20038;-83
2021/07/28 12:35:21;;;;;;;8.60;5.13;;;20.20;92.60;;;;;;5014500;28;20621;-83
2021/07/28 12:38:06;;;;;;;7.07;5.00;;;20.20;92.60;;;;;;5016336;28;20076;-83